Time;durP1;ratioP1;P1;durP2;ratioP2;P2;SDS_P1;SDS_P2;PMS_P1;PMS_P2;Temp;Humidity;BMP_temperature;BMP_pressure;BME280_temperature;BME280_humidity;BME280_pressure;Samples;Min_cycle;Max_cycle;Signal;HPM_P1;HPM_P2
2021/11/20 00:01:59;;;;;;;18.97;15.17;;;11.80;66.70;;;;;;5028718;28;21194;-48
2021/11/20 00:04:24;;;;;;;20.93;14.83;;;12.00;66.20;;;;;;5027119;28;20447;-49
2021/11/20 00:06:53;;;;;;;19.27;15.13;;;12.20;65.50;;;;;;5025569;28;20432;-47
2021/11/20 00:09:21;;;;;;;19.00;14.63;;;12.30;64.90;;;;;;5030733;28;20201;-48
2021/11/20 00:11:49;;;;;;;18.30;14.23;;;12.40;64.30;;;;;;5026815;28;20444;-50
2021/11/20 00:14:17;;;;;;;15.83;13.90;;;12.20;64.10;;;;;;5032840;28;20435;-48
2021/11/20 00:16:45;;;;;;;17.80;14.00;;;11.80;65.40;;;;;;5030153;28;20451;-49
2021/11/20 00:19:12;;;;;;;23.03;16.90;;;11.60;66.40;;;;;;5027046;28;20559;-49
2021/11/20 00:21:46;;;;;;;18.40;14.60;;;11.70;66.60;;;;;;5024413;28;20809;-49
2021/11/20 00:24:36;;;;;;;23.00;16.17;;;11.90;66.30;;;;;;5023521;28;20451;-48
2021/11/20 00:27:06;;;;;;;19.00;14.20;;;12.00;65.60;;;;;;5027435;28;20440;-51
2021/11/20 00:29:44;;;;;;;17.07;13.30;;;12.10;65.00;;;;;;5031276;28;20436;-49
2021/11/20 00:32:17;;;;;;;22.17;16.87;;;12.10;65.10;;;;;;5030407;28;20490;-48
2021/11/20 00:34:45;;;;;;;21.30;15.23;;;12.10;64.50;;;;;;5024395;28;20436;-48
2021/11/20 00:37:11;;;;;;;19.67;14.17;;;12.00;64.90;;;;;;5023413;28;20435;-49
2021/11/20 00:39:38;;;;;;;16.83;14.40;;;11.90;65.40;;;;;;5029254;28;20492;-48
2021/11/20 00:42:05;;;;;;;19.07;14.37;;;12.00;65.50;;;;;;5026717;28;20432;-52
2021/11/20 00:44:32;;;;;;;17.97;13.67;;;12.00;65.30;;;;;;5026234;28;20955;-47
2021/11/20 00:46:57;;;;;;;18.07;14.33;;;11.90;65.30;;;;;;5024962;28;20482;-52
2021/11/20 00:49:24;;;;;;;20.03;15.17;;;12.00;64.80;;;;;;5023727;28;20456;-50
2021/11/20 00:51:50;;;;;;;17.03;13.13;;;12.10;64.90;;;;;;5023141;28;20563;-48
2021/11/20 00:54:16;;;;;;;19.90;13.30;;;12.20;64.10;;;;;;5027852;28;20907;-51
2021/11/20 00:56:43;;;;;;;18.10;13.77;;;12.20;63.90;;;;;;5022156;28;20452;-51
2021/11/20 00:59:09;;;;;;;18.90;13.70;;;11.90;64.40;;;;;;5023427;28;20649;-48
2021/11/20 01:01:43;;;;;;;18.17;13.70;;;11.70;65.30;;;;;;5024162;28;20490;-48
2021/11/20 01:04:09;;;;;;;20.27;15.30;;;11.60;65.80;;;;;;5023773;28;20452;-49
2021/11/20 01:06:36;;;;;;;16.07;13.80;;;11.80;65.90;;;;;;5022697;28;20456;-48
2021/11/20 01:09:03;;;;;;;22.50;15.80;;;12.00;65.00;;;;;;5022237;28;20447;-52
2021/11/20 01:11:33;;;;;;;19.53;15.00;;;11.90;64.90;;;;;;5023131;28;20451;-47
2021/11/20 01:14:01;;;;;;;17.50;13.50;;;11.70;65.30;;;;;;5023960;28;20444;-52
2021/11/20 01:16:28;;;;;;;19.80;13.53;;;11.80;65.20;;;;;;5020578;28;20505;-50
2021/11/20 01:18:56;;;;;;;18.43;13.77;;;11.90;64.80;;;;;;5023796;28;20470;-52
2021/11/20 01:21:22;;;;;;;19.60;14.30;;;12.10;64.40;;;;;;5020332;28;20444;-47
2021/11/20 01:23:49;;;;;;;18.20;13.03;;;12.00;64.00;;;;;;5028167;28;20931;-52
2021/11/20 01:26:17;;;;;;;19.50;14.30;;;12.00;64.20;;;;;;5025657;28;20662;-48
2021/11/20 01:28:48;;;;;;;16.93;13.33;;;11.90;64.40;;;;;;5027446;28;20456;-49
2021/11/20 01:31:15;;;;;;;18.50;14.10;;;12.00;64.50;;;;;;5030672;28;20432;-52
2021/11/20 01:33:42;;;;;;;16.77;12.53;;;11.90;64.60;;;;;;5023997;28;20453;-49
2021/11/20 01:36:09;;;;;;;18.93;14.07;;;11.70;65.30;;;;;;5025597;28;20780;-49
2021/11/20 01:38:35;;;;;;;19.17;14.20;;;11.90;65.00;;;;;;5031468;28;20477;-50
2021/11/20 01:41:03;;;;;;;21.60;14.57;;;12.10;64.40;;;;;;5026017;28;20491;-48
2021/11/20 01:43:29;;;;;;;19.00;14.10;;;12.30;63.90;;;;;;5028218;28;20471;-47
2021/11/20 01:46:04;;;;;;;17.00;12.97;;;12.30;63.70;;;;;;5027956;28;20448;-49
2021/11/20 01:48:42;;;;;;;17.53;13.70;;;12.40;63.60;;;;;;5027222;28;20695;-49
2021/11/20 01:51:29;;;;;;;20.70;14.43;;;12.30;63.60;;;;;;5027276;28;20537;-48
2021/11/20 01:54:29;;;;;;;20.23;15.10;;;12.20;63.80;;;;;;5026700;28;21067;-48
2021/11/20 01:57:16;;;;;;;18.60;13.30;;;12.20;63.70;;;;;;5025799;28;21272;-51
2021/11/20 01:59:41;;;;;;;18.17;12.67;;;12.10;64.00;;;;;;5028354;28;20498;-49
2021/11/20 02:02:28;;;;;;;15.20;12.47;;;12.10;64.10;;;;;;5027828;28;20448;-48
2021/11/20 02:05:02;;;;;;;18.93;14.30;;;11.80;65.40;;;;;;5026401;28;20194;-47
2021/11/20 02:07:44;;;;;;;20.93;14.93;;;11.70;65.80;;;;;;5021136;28;20463;-49
2021/11/20 02:10:23;;;;;;;19.27;13.63;;;11.90;65.50;;;;;;5023455;28;20443;-51
2021/11/20 02:12:53;;;;;;;20.37;13.20;;;11.90;64.90;;;;;;5028613;28;20453;-50
2021/11/20 02:15:50;;;;;;;17.10;13.33;;;12.00;64.70;;;;;;5026754;28;20443;-49
2021/11/20 02:18:17;;;;;;;15.33;12.40;;;12.10;64.70;;;;;;5026401;28;20828;-47
2021/11/20 02:21:21;;;;;;;16.40;12.63;;;11.90;64.80;;;;;;5018944;28;20488;-52
2021/11/20 02:23:47;;;;;;;18.27;12.67;;;11.60;65.90;;;;;;4983358;28;20544;-50
2021/11/20 02:26:12;;;;;;;14.90;11.83;;;11.60;66.50;;;;;;4981349;28;20536;-49
2021/11/20 02:28:39;;;;;;;16.40;11.93;;;11.60;66.10;;;;;;5012756;28;20213;-49
2021/11/20 02:31:06;;;;;;;14.50;11.40;;;11.80;65.60;;;;;;5027208;28;20189;-48
2021/11/20 02:33:38;;;;;;;16.37;12.57;;;11.70;65.50;;;;;;5029654;28;20808;-48
2021/11/20 02:36:09;;;;;;;15.20;12.37;;;11.40;66.40;;;;;;5032161;28;20802;-53
2021/11/20 02:38:43;;;;;;;17.87;13.17;;;11.50;66.80;;;;;;5032547;28;20440;-49
2021/11/20 02:41:13;;;;;;;18.67;13.23;;;11.70;66.10;;;;;;5027682;28;20980;-48
2021/11/20 02:43:43;;;;;;;16.27;11.90;;;11.80;65.80;;;;;;5031297;28;20435;-49
2021/11/20 02:46:11;;;;;;;14.33;11.17;;;11.90;65.50;;;;;;5027674;28;20507;-48
2021/11/20 02:48:37;;;;;;;16.07;11.60;;;12.00;65.00;;;;;;5031586;28;20521;-49
2021/11/20 02:51:07;;;;;;;15.07;11.50;;;12.10;64.80;;;;;;5028740;28;20448;-51
2021/11/20 02:53:37;;;;;;;13.23;10.60;;;12.20;64.60;;;;;;5032917;28;20444;-47
2021/11/20 02:56:06;;;;;;;12.70;9.67;;;12.00;64.10;;;;;;5033661;28;20458;-49
2021/11/20 02:58:33;;;;;;;14.33;10.10;;;11.70;65.10;;;;;;5033090;28;20428;-49
2021/11/20 03:01:10;;;;;;;13.90;10.50;;;11.70;65.40;;;;;;5031492;28;21270;-47
2021/11/20 03:03:36;;;;;;;12.90;10.33;;;11.70;65.60;;;;;;5033227;28;20455;-52
2021/11/20 03:06:02;;;;;;;17.23;11.07;;;11.90;65.40;;;;;;5032871;28;20456;-49
2021/11/20 03:08:27;;;;;;;13.50;10.10;;;12.00;64.80;;;;;;5033036;28;20604;-49
2021/11/20 03:10:53;;;;;;;14.63;9.70;;;11.80;64.70;;;;;;5032169;28;20189;-49
2021/11/20 03:13:19;;;;;;;15.47;9.90;;;11.40;65.90;;;;;;5033572;28;20201;-48
2021/11/20 03:15:45;;;;;;;14.30;10.90;;;11.30;66.60;;;;;;5032866;28;20727;-52
2021/11/20 03:18:11;;;;;;;13.20;10.20;;;11.40;66.70;;;;;;5033815;28;20481;-49
2021/11/20 03:20:37;;;;;;;16.73;10.27;;;11.60;66.20;;;;;;5032074;28;20537;-48
2021/11/20 03:23:18;;;;;;;15.57;10.40;;;11.80;65.50;;;;;;5033653;28;20239;-53
2021/11/20 03:25:43;;;;;;;13.97;9.50;;;12.00;65.10;;;;;;5033076;28;20770;-49
2021/11/20 03:28:10;;;;;;;15.40;10.93;;;12.10;64.30;;;;;;5031221;28;20432;-48
2021/11/20 03:30:35;;;;;;;15.47;10.27;;;12.10;63.90;;;;;;5031456;28;20212;-49
2021/11/20 03:33:02;;;;;;;11.23;8.87;;;12.00;64.20;;;;;;5031325;28;20432;-48
2021/11/20 03:35:28;;;;;;;15.03;11.17;;;11.90;64.50;;;;;;5032034;28;20432;-49
2021/11/20 03:37:54;;;;;;;14.30;9.90;;;12.10;64.30;;;;;;5032835;28;20927;-49
2021/11/20 03:40:20;;;;;;;12.27;8.67;;;12.10;64.30;;;;;;5032442;28;20479;-48
2021/11/20 03:42:46;;;;;;;17.03;11.30;;;12.30;64.10;;;;;;5032988;28;20526;-47
2021/11/20 03:45:14;;;;;;;12.20;10.03;;;12.40;63.40;;;;;;5031881;28;20440;-47
2021/11/20 03:47:40;;;;;;;15.00;10.13;;;12.40;63.20;;;;;;5031584;28;20432;-48
2021/11/20 03:50:09;;;;;;;11.70;8.33;;;12.30;62.90;;;;;;5031886;28;20435;-48
2021/11/20 03:52:34;;;;;;;12.07;9.90;;;12.10;63.40;;;;;;5027306;28;20447;-49
2021/11/20 03:55:00;;;;;;;13.80;9.87;;;12.00;64.00;;;;;;5029963;28;20451;-49
2021/11/20 03:57:26;;;;;;;11.40;9.70;;;12.20;63.60;;;;;;5026158;28;20574;-48
2021/11/20 03:59:52;;;;;;;12.17;9.70;;;12.30;63.30;;;;;;5028171;28;20233;-47
2021/11/20 04:02:18;;;;;;;13.43;9.57;;;12.50;62.90;;;;;;5030308;28;20447;-49
2021/11/20 04:04:44;;;;;;;11.60;9.87;;;12.40;62.30;;;;;;5031660;28;20191;-49
2021/11/20 04:07:09;;;;;;;15.17;10.77;;;12.50;62.70;;;;;;5024691;28;20641;-50
2021/11/20 04:09:35;;;;;;;13.77;8.93;;;12.60;62.50;;;;;;5031200;28;20806;-50
2021/11/20 04:12:01;;;;;;;12.90;9.50;;;12.50;62.20;;;;;;5023358;28;20185;-48
2021/11/20 04:14:27;;;;;;;11.03;8.50;;;12.10;62.50;;;;;;5028718;28;20274;-49
2021/11/20 04:16:54;;;;;;;12.33;9.50;;;11.80;63.80;;;;;;5029437;28;20537;-47
2021/11/20 04:19:21;;;;;;;13.93;10.40;;;11.60;65.10;;;;;;5029751;28;21014;-48
2021/11/20 04:21:47;;;;;;;12.57;10.10;;;11.80;65.30;;;;;;5031203;28;20436;-48
2021/11/20 04:24:14;;;;;;;14.67;11.13;;;11.90;64.40;;;;;;5028786;28;20451;-49
2021/11/20 04:26:41;;;;;;;14.23;9.50;;;12.00;64.10;;;;;;5024166;28;20852;-51
2021/11/20 04:29:07;;;;;;;12.70;9.67;;;12.20;63.80;;;;;;5023437;28;20448;-47
2021/11/20 04:31:33;;;;;;;13.20;10.13;;;12.20;63.00;;;;;;5028542;28;20440;-49
2021/11/20 04:33:59;;;;;;;14.70;10.10;;;12.30;63.30;;;;;;5031011;28;20198;-47
2021/11/20 04:36:26;;;;;;;12.57;11.20;;;12.20;63.00;;;;;;5028211;28;20456;-47
2021/11/20 04:38:52;;;;;;;13.23;10.07;;;12.10;63.60;;;;;;5028227;28;20563;-47
2021/11/20 04:41:19;;;;;;;13.77;10.47;;;12.30;63.50;;;;;;5030050;28;20440;-47
2021/11/20 04:43:46;;;;;;;11.07;9.90;;;12.40;63.10;;;;;;5030594;28;20456;-47
2021/11/20 04:46:13;;;;;;;12.83;10.23;;;12.20;62.90;;;;;;5026707;28;20521;-52
2021/11/20 04:48:39;;;;;;;14.73;11.03;;;12.10;63.50;;;;;;5025931;28;20456;-49
2021/11/20 04:51:05;;;;;;;14.10;10.60;;;11.90;64.00;;;;;;5022852;28;20436;-49
2021/11/20 04:53:34;;;;;;;14.80;10.00;;;11.50;65.50;;;;;;5029495;28;21045;-48
2021/11/20 04:56:00;;;;;;;13.10;10.57;;;11.50;66.20;;;;;;5024204;28;20448;-50
2021/11/20 04:58:27;;;;;;;14.70;9.87;;;11.60;66.20;;;;;;5029844;28;20452;-48
2021/11/20 05:00:54;;;;;;;14.80;10.30;;;11.70;65.90;;;;;;5029666;28;21044;-48
2021/11/20 05:03:21;;;;;;;17.40;11.53;;;11.80;65.40;;;;;;5029233;28;20451;-51
2021/11/20 05:05:49;;;;;;;15.57;12.03;;;11.80;65.50;;;;;;5024633;28;20459;-47
2021/11/20 05:08:15;;;;;;;15.23;11.67;;;11.80;65.30;;;;;;5030829;28;21324;-50
2021/11/20 05:10:44;;;;;;;16.40;11.93;;;11.90;65.10;;;;;;5030291;28;20994;-48
2021/11/20 05:13:10;;;;;;;14.03;10.70;;;12.00;64.90;;;;;;5031383;28;20463;-47
2021/11/20 05:15:38;;;;;;;15.87;11.93;;;12.00;64.60;;;;;;5030463;28;20490;-48
2021/11/20 05:18:05;;;;;;;16.70;12.23;;;11.90;64.60;;;;;;5029749;28;20971;-47
2021/11/20 05:20:31;;;;;;;14.00;10.53;;;11.80;65.30;;;;;;5030890;28;20487;-48
2021/11/20 05:22:57;;;;;;;14.23;10.90;;;12.00;64.90;;;;;;5029556;28;20467;-48
2021/11/20 05:25:23;;;;;;;14.47;10.53;;;12.10;64.50;;;;;;5031117;28;20788;-50
2021/11/20 05:27:53;;;;;;;15.87;10.43;;;12.10;64.20;;;;;;5030196;28;20451;-47
2021/11/20 05:30:29;;;;;;;16.50;11.87;;;12.10;64.30;;;;;;5030368;28;20455;-49
2021/11/20 05:32:57;;;;;;;17.37;12.40;;;12.00;64.30;;;;;;5030080;28;21016;-47
2021/11/20 05:35:25;;;;;;;14.30;12.40;;;12.00;64.40;;;;;;5029531;28;20471;-48
2021/11/20 05:37:51;;;;;;;16.10;11.73;;;11.80;65.30;;;;;;5028912;28;20431;-51
2021/11/20 05:40:18;;;;;;;15.20;11.00;;;12.00;64.90;;;;;;5029300;28;20479;-49
2021/11/20 05:42:49;;;;;;;13.80;11.10;;;12.00;64.60;;;;;;5030608;28;20439;-49
2021/11/20 05:45:19;;;;;;;14.33;11.10;;;12.00;64.70;;;;;;5027383;28;20443;-48
2021/11/20 05:47:46;;;;;;;16.87;10.97;;;12.10;64.30;;;;;;5029351;28;20432;-48
2021/11/20 05:50:12;;;;;;;16.50;12.60;;;12.00;63.90;;;;;;5028233;28;20784;-49
2021/11/20 05:52:37;;;;;;;17.10;12.07;;;11.90;64.40;;;;;;5022811;28;20492;-48
2021/11/20 05:55:06;;;;;;;19.70;12.00;;;11.90;64.50;;;;;;5028486;28;20432;-48
2021/11/20 05:57:32;;;;;;;17.30;11.37;;;11.80;64.40;;;;;;5028099;28;20208;-49
2021/11/20 05:59:58;;;;;;;18.30;11.13;;;11.80;64.80;;;;;;5030178;28;20540;-47
2021/11/20 06:02:23;;;;;;;14.73;10.83;;;11.80;64.70;;;;;;5030108;28;20918;-48
2021/11/20 06:04:49;;;;;;;16.63;11.57;;;11.80;64.90;;;;;;5026905;28;20197;-48
2021/11/20 06:07:15;;;;;;;15.40;10.90;;;12.00;64.60;;;;;;5026949;28;20193;-49
2021/11/20 06:09:41;;;;;;;14.77;10.93;;;11.80;64.20;;;;;;5032283;28;20642;-48
2021/11/20 06:12:09;;;;;;;16.80;11.33;;;11.80;64.70;;;;;;5027021;28;21217;-52
2021/11/20 06:14:35;;;;;;;19.37;9.70;;;12.00;64.50;;;;;;5031557;28;20830;-48
2021/11/20 06:17:01;;;;;;;13.40;9.63;;;12.00;66.50;;;;;;5030617;28;20488;-51
2021/11/20 06:19:27;;;;;;;16.30;10.70;;;12.20;67.10;;;;;;5030977;28;20648;-52
2021/11/20 06:21:53;;;;;;;14.40;10.23;;;12.40;66.60;;;;;;5033791;28;20201;-49
2021/11/20 06:24:19;;;;;;;15.87;10.63;;;12.20;65.20;;;;;;5034433;28;20533;-50
2021/11/20 06:26:46;;;;;;;13.23;9.50;;;12.40;64.40;;;;;;5028475;28;20436;-49
2021/11/20 06:29:12;;;;;;;12.23;9.57;;;12.50;65.10;;;;;;5027222;28;20814;-49
2021/11/20 06:31:38;;;;;;;13.23;9.63;;;12.70;64.60;;;;;;5029220;28;20436;-48
2021/11/20 06:34:04;;;;;;;14.87;11.07;;;12.80;64.00;;;;;;5031757;28;20494;-53
2021/11/20 06:36:31;;;;;;;15.87;9.90;;;12.80;62.70;;;;;;5032556;28;20189;-49
2021/11/20 06:38:57;;;;;;;14.20;11.20;;;13.00;62.70;;;;;;5032911;28;20451;-50
2021/11/20 06:41:24;;;;;;;15.20;11.00;;;13.10;62.10;;;;;;5033036;28;20442;-52
2021/11/20 06:43:50;;;;;;;13.37;10.00;;;13.20;61.70;;;;;;5031353;28;20498;-50
2021/11/20 06:46:18;;;;;;;13.47;11.03;;;13.20;61.40;;;;;;5028235;28;20443;-48
2021/11/20 06:48:45;;;;;;;13.37;10.50;;;13.10;60.40;;;;;;5034546;28;20443;-52
2021/11/20 06:51:12;;;;;;;15.10;11.43;;;12.90;60.80;;;;;;5033445;28;20442;-51
2021/11/20 06:53:38;;;;;;;15.60;12.20;;;12.40;62.30;;;;;;5033569;28;20435;-50
2021/11/20 06:56:04;;;;;;;16.33;11.87;;;12.30;62.80;;;;;;5032373;28;20439;-51
2021/11/20 07:01:13;;;;;;;15.03;11.70;;;12.40;63.30;;;;;;5031486;28;20978;-52
2021/11/20 07:03:58;;;;;;;18.83;11.50;;;12.60;63.20;;;;;;5032685;28;20436;-51
2021/11/20 07:06:32;;;;;;;15.30;11.53;;;12.70;62.10;;;;;;5030679;28;20443;-48
2021/11/20 07:08:59;;;;;;;15.70;10.63;;;12.50;62.80;;;;;;5033177;28;20780;-51
2021/11/20 07:11:26;;;;;;;16.60;12.07;;;12.70;62.40;;;;;;5032024;28;20797;-51
2021/11/20 07:13:52;;;;;;;17.77;11.60;;;13.00;62.00;;;;;;5031679;28;20439;-49
2021/11/20 07:16:20;;;;;;;15.23;11.40;;;13.20;60.80;;;;;;5032672;28;20456;-52
2021/11/20 07:18:46;;;;;;;14.63;11.23;;;13.00;60.60;;;;;;5033276;28;20478;-51
2021/11/20 07:21:12;;;;;;;19.57;14.53;;;12.90;60.90;;;;;;5030566;28;20970;-47
2021/11/20 07:23:38;;;;;;;18.53;12.53;;;12.80;60.90;;;;;;5033673;28;20209;-48
2021/11/20 07:26:06;;;;;;;17.00;11.40;;;12.80;61.80;;;;;;5030720;28;20848;-52
2021/11/20 07:28:32;;;;;;;16.23;11.30;;;12.90;61.40;;;;;;5031955;28;20440;-48
2021/11/20 07:30:58;;;;;;;13.37;10.53;;;13.10;61.20;;;;;;5029313;28;20436;-47
2021/11/20 07:33:25;;;;;;;16.40;11.60;;;13.20;60.50;;;;;;5023115;28;20448;-48
2021/11/20 07:35:57;;;;;;;14.07;11.17;;;13.20;60.60;;;;;;5027574;28;20424;-49
2021/11/20 07:38:28;;;;;;;13.87;11.30;;;13.10;61.20;;;;;;5022890;28;20548;-48
2021/11/20 07:40:54;;;;;;;14.73;10.33;;;12.90;61.60;;;;;;5026098;28;20904;-50
2021/11/20 07:43:20;;;;;;;16.03;11.33;;;13.10;61.70;;;;;;5030299;28;20424;-47
2021/11/20 07:45:45;;;;;;;14.53;11.20;;;12.80;61.30;;;;;;5029011;28;20573;-48
2021/11/20 07:48:17;;;;;;;14.60;10.40;;;12.70;62.10;;;;;;5033755;28;20673;-49
2021/11/20 07:50:44;;;;;;;14.90;11.27;;;12.70;62.10;;;;;;5029639;28;20197;-51
2021/11/20 07:53:11;;;;;;;14.77;11.17;;;12.80;62.60;;;;;;5040754;28;20431;-48
2021/11/20 07:55:39;;;;;;;18.03;12.40;;;13.00;61.80;;;;;;5040819;28;20447;-52
2021/11/20 07:58:05;;;;;;;17.93;11.63;;;13.00;61.40;;;;;;5032651;28;20440;-50
2021/11/20 08:00:32;;;;;;;15.93;11.63;;;13.00;61.60;;;;;;5030095;28;20553;-49
2021/11/20 08:02:57;;;;;;;16.87;12.47;;;13.00;61.60;;;;;;5031875;28;20467;-48
2021/11/20 08:05:27;;;;;;;16.23;11.90;;;13.20;61.20;;;;;;5034601;28;20471;-51
2021/11/20 08:07:53;;;;;;;14.37;11.93;;;13.30;60.60;;;;;;5026535;28;20204;-48
2021/11/20 08:10:20;;;;;;;16.17;11.93;;;13.40;60.20;;;;;;5027681;28;20432;-50
2021/11/20 08:12:46;;;;;;;17.73;10.80;;;13.50;59.90;;;;;;5030082;28;20509;-48
2021/11/20 08:15:12;;;;;;;17.07;12.00;;;13.50;59.80;;;;;;5026975;28;20789;-47
2021/11/20 08:17:38;;;;;;;14.73;12.33;;;13.50;59.80;;;;;;5032496;28;20529;-48
2021/11/20 08:20:09;;;;;;;15.13;12.13;;;13.60;59.80;;;;;;5028656;28;20484;-48
2021/11/20 08:22:36;;;;;;;15.90;11.37;;;13.60;59.40;;;;;;5028130;28;20239;-49
2021/11/20 08:25:03;;;;;;;15.23;10.90;;;13.60;59.50;;;;;;5033835;28;20566;-47
2021/11/20 08:27:29;;;;;;;15.20;11.57;;;13.80;59.30;;;;;;5028594;28;20435;-47
2021/11/20 08:29:54;;;;;;;16.70;11.43;;;13.80;58.90;;;;;;5034050;28;20436;-47
2021/11/20 08:32:22;;;;;;;16.13;11.80;;;13.80;58.80;;;;;;5031641;28;20225;-47
2021/11/20 08:34:48;;;;;;;15.57;11.83;;;13.30;59.40;;;;;;5032443;28;20605;-48
2021/11/20 08:37:15;;;;;;;14.00;10.40;;;13.30;60.30;;;;;;5029911;28;20503;-48
2021/11/20 08:39:41;;;;;;;15.13;11.00;;;13.40;59.90;;;;;;5032766;28;21135;-48
2021/11/20 08:42:07;;;;;;;13.00;10.60;;;13.40;59.80;;;;;;5031525;28;20880;-48
2021/11/20 08:44:33;;;;;;;15.30;11.73;;;13.30;60.00;;;;;;5032325;28;20503;-47
2021/11/20 08:46:59;;;;;;;17.73;11.63;;;13.50;60.10;;;;;;5031408;28;20648;-47
2021/11/20 08:49:25;;;;;;;13.70;11.17;;;13.50;59.80;;;;;;5031447;28;20424;-47
2021/11/20 08:51:52;;;;;;;17.63;11.40;;;13.30;59.60;;;;;;5031402;28;20494;-47
2021/11/20 08:54:19;;;;;;;18.23;12.90;;;13.40;60.50;;;;;;5032036;28;20193;-47
2021/11/20 08:56:47;;;;;;;16.10;12.00;;;13.20;60.20;;;;;;5031478;28;20420;-47
2021/11/20 08:59:15;;;;;;;16.97;12.67;;;13.20;60.90;;;;;;5031620;28;20443;-48
2021/11/20 09:01:48;;;;;;;15.03;11.47;;;13.10;60.40;;;;;;5030812;28;20943;-47
2021/11/20 09:04:30;;;;;;;13.57;10.80;;;12.90;61.60;;;;;;5030047;28;20499;-48
2021/11/20 09:07:08;;;;;;;14.20;10.27;;;12.90;62.00;;;;;;5019489;28;20428;-47
2021/11/20 09:09:43;;;;;;;14.20;10.63;;;13.20;61.90;;;;;;5031168;28;20420;-47
2021/11/20 09:12:17;;;;;;;14.03;10.87;;;13.30;60.70;;;;;;5032490;28;20443;-47
2021/11/20 09:15:07;;;;;;;13.90;10.43;;;13.30;60.90;;;;;;5027853;28;20439;-52
2021/11/20 09:17:33;;;;;;;16.27;11.03;;;13.60;60.30;;;;;;5028872;28;20959;-47
2021/11/20 09:19:59;;;;;;;20.53;12.30;;;13.80;59.60;;;;;;5031297;28;20487;-47
2021/11/20 09:22:24;;;;;;;13.77;10.43;;;14.00;58.70;;;;;;5031902;28;20284;-48
2021/11/20 09:24:50;;;;;;;13.90;10.37;;;14.00;59.00;;;;;;5031536;28;20444;-50
2021/11/20 09:27:16;;;;;;;12.67;10.83;;;14.10;58.90;;;;;;5034876;28;20216;-47
2021/11/20 09:29:42;;;;;;;13.50;10.00;;;14.20;58.70;;;;;;5031181;28;20436;-48
2021/11/20 09:32:09;;;;;;;12.30;9.30;;;14.30;58.20;;;;;;5029444;28;20204;-49
2021/11/20 09:34:35;;;;;;;14.13;10.87;;;14.30;58.00;;;;;;5031469;28;20460;-48
2021/11/20 09:37:01;;;;;;;18.43;12.07;;;14.10;58.00;;;;;;5030567;28;20451;-48
2021/11/20 09:39:34;;;;;;;16.37;11.10;;;13.90;58.90;;;;;;5030872;28;20520;-49
2021/11/20 09:42:15;;;;;;;11.83;10.50;;;13.70;59.00;;;;;;5030561;28;20478;-47
2021/11/20 09:44:50;;;;;;;16.20;11.27;;;13.90;59.40;;;;;;5031317;28;20443;-49
2021/11/20 09:47:26;;;;;;;14.83;10.63;;;14.20;59.00;;;;;;5033083;28;20458;-48
2021/11/20 09:49:54;;;;;;;15.37;10.90;;;14.30;57.90;;;;;;5030860;28;20846;-47
2021/11/20 09:52:20;;;;;;;13.60;10.47;;;14.30;58.10;;;;;;5030564;28;20428;-47
2021/11/20 09:54:47;;;;;;;13.00;10.80;;;14.40;57.80;;;;;;5031130;28;20432;-49
2021/11/20 09:57:14;;;;;;;14.30;10.97;;;14.50;57.80;;;;;;5029700;28;20490;-47
2021/11/20 09:59:44;;;;;;;14.30;11.60;;;14.50;57.70;;;;;;5030168;28;20488;-48
2021/11/20 10:02:29;;;;;;;13.00;10.67;;;14.60;57.60;;;;;;5030597;28;20482;-47
2021/11/20 10:04:57;;;;;;;14.13;10.33;;;14.70;57.30;;;;;;5030932;28;21027;-47
2021/11/20 10:07:34;;;;;;;15.47;12.60;;;14.70;57.10;;;;;;5031111;28;20997;-47
2021/11/20 10:10:15;;;;;;;14.07;10.77;;;14.90;57.00;;;;;;5030719;28;20436;-46
2021/11/20 10:13:07;;;;;;;14.37;10.57;;;14.80;56.50;;;;;;5030405;28;20443;-47
2021/11/20 10:15:42;;;;;;;10.57;9.20;;;14.80;56.80;;;;;;5030147;28;20436;-47
2021/11/20 10:18:27;;;;;;;13.63;10.77;;;14.90;56.50;;;;;;5018165;28;20524;-47
2021/11/20 10:20:58;;;;;;;14.90;10.43;;;15.00;56.50;;;;;;5026321;28;20491;-48
2021/11/20 10:23:44;;;;;;;12.80;10.00;;;15.10;56.20;;;;;;5030842;28;20498;-49
2021/11/20 10:26:41;;;;;;;13.07;10.73;;;15.10;56.10;;;;;;5028956;28;20802;-47
2021/11/20 10:29:38;;;;;;;15.40;11.70;;;15.20;55.90;;;;;;5030684;28;20440;-48
2021/11/20 10:32:18;;;;;;;29.53;13.00;;;15.30;56.00;;;;;;5030485;28;20440;-48
2021/11/20 10:34:54;;;;;;;39.70;14.10;;;15.30;56.00;;;;;;5030984;28;20569;-47
2021/11/20 10:37:28;;;;;;;21.07;12.03;;;15.20;56.00;;;;;;5030239;28;20432;-47
2021/11/20 10:40:15;;;;;;;17.20;10.00;;;15.10;56.00;;;;;;5025434;28;21049;-48
2021/11/20 10:42:43;;;;;;;15.30;8.00;;;15.10;56.20;;;;;;5029919;28;20474;-47
2021/11/20 10:45:09;;;;;;;10.27;7.73;;;15.10;56.10;;;;;;5026242;28;20424;-47
2021/11/20 10:47:39;;;;;;;16.50;9.70;;;15.00;56.10;;;;;;5030426;28;20489;-47
2021/11/20 10:50:32;;;;;;;10.97;8.57;;;14.80;56.30;;;;;;5030192;28;20705;-48
2021/11/20 10:53:19;;;;;;;11.50;8.30;;;14.70;56.90;;;;;;5029419;28;20424;-47
2021/11/20 10:56:00;;;;;;;10.00;7.87;;;14.60;56.90;;;;;;5035365;28;20501;-48
2021/11/20 10:58:57;;;;;;;9.33;7.37;;;14.60;57.00;;;;;;5035377;28;20448;-49
2021/11/20 11:01:50;;;;;;;7.57;6.07;;;14.90;56.50;;;;;;5033165;28;20483;-48
2021/11/20 11:04:34;;;;;;;9.07;6.10;;;14.90;56.40;;;;;;5033922;28;20466;-47
2021/11/20 11:07:10;;;;;;;6.90;5.73;;;15.00;56.00;;;;;;5021733;28;20437;-48
2021/11/20 11:09:48;;;;;;;10.80;6.60;;;15.10;55.60;;;;;;5034820;28;20436;-48
2021/11/20 11:12:17;;;;;;;7.07;5.63;;;15.10;55.40;;;;;;5033178;28;20432;-47
2021/11/20 11:14:49;;;;;;;7.47;6.37;;;15.10;55.40;;;;;;5034061;28;20440;-47
2021/11/20 11:17:52;;;;;;;9.93;7.13;;;15.20;55.20;;;;;;5026030;28;20480;-48
2021/11/20 11:20:39;;;;;;;8.60;6.60;;;15.10;55.20;;;;;;5023107;28;20548;-48
2021/11/20 11:23:13;;;;;;;9.97;7.20;;;15.20;55.30;;;;;;5034209;28;20916;-47
2021/11/20 11:26:07;;;;;;;10.70;7.00;;;15.20;55.30;;;;;;5033186;28;20488;-47
2021/11/20 11:28:44;;;;;;;11.73;7.80;;;15.10;55.30;;;;;;5035786;28;20454;-49
2021/11/20 11:31:26;;;;;;;10.77;8.17;;;15.00;55.80;;;;;;5032689;28;20899;-49
2021/11/20 11:34:01;;;;;;;10.80;7.50;;;14.80;56.30;;;;;;5033479;28;20462;-48
2021/11/20 11:36:40;;;;;;;9.63;7.13;;;14.70;56.40;;;;;;5033168;28;20486;-47
2021/11/20 11:39:27;;;;;;;9.07;7.10;;;14.90;56.30;;;;;;5037455;28;20931;-47
2021/11/20 11:42:01;;;;;;;9.57;7.50;;;14.90;56.10;;;;;;5037233;28;20436;-48
2021/11/20 11:44:37;;;;;;;9.57;7.93;;;15.10;55.80;;;;;;5030481;28;20501;-48
2021/11/20 11:47:31;;;;;;;11.90;7.93;;;15.20;55.60;;;;;;5026056;28;20439;-45
2021/11/20 11:50:34;;;;;;;11.90;7.70;;;15.10;55.80;;;;;;5032915;28;20449;-47
2021/11/20 11:53:24;;;;;;;8.70;7.27;;;15.10;56.10;;;;;;5029377;28;21065;-46
2021/11/20 11:55:52;;;;;;;8.13;6.53;;;15.10;56.00;;;;;;5027864;28;20471;-45
2021/11/20 11:58:30;;;;;;;7.13;5.73;;;15.10;55.70;;;;;;5030701;28;20447;-47
2021/11/20 12:01:07;;;;;;;7.37;5.63;;;15.20;55.20;;;;;;5031078;28;20576;-45
2021/11/20 12:03:35;;;;;;;6.00;5.40;;;14.80;55.50;;;;;;5031412;28;20510;-46
2021/11/20 12:06:07;;;;;;;7.37;5.07;;;14.50;56.30;;;;;;5034012;28;21163;-46
2021/11/20 12:08:37;;;;;;;5.07;4.57;;;14.60;56.50;;;;;;5032452;28;20452;-46
2021/11/20 12:11:12;;;;;;;7.70;5.43;;;14.70;56.20;;;;;;5030342;28;20440;-47
2021/11/20 12:13:43;;;;;;;7.50;5.20;;;15.00;55.90;;;;;;5025117;28;20444;-46
2021/11/20 12:16:34;;;;;;;6.40;4.90;;;15.10;55.40;;;;;;5029421;28;20494;-45
2021/11/20 12:19:18;;;;;;;6.23;4.57;;;15.10;55.00;;;;;;5025180;28;20883;-48
2021/11/20 12:22:03;;;;;;;5.53;4.77;;;15.00;55.10;;;;;;5028620;28;20453;-46
2021/11/20 12:24:43;;;;;;;7.03;5.83;;;14.90;55.60;;;;;;5030726;28;20428;-47
2021/11/20 12:27:51;;;;;;;8.47;5.50;;;15.10;55.20;;;;;;5025458;28;20531;-46
2021/11/20 12:31:13;;;;;;;9.50;6.03;;;15.20;54.60;;;;;;5029102;28;20513;-46
2021/11/20 12:34:35;;;;;;;6.30;5.60;;;15.20;54.10;;;;;;5021306;28;20949;-46
2021/11/20 12:37:05;;;;;;;7.07;5.63;;;15.10;54.20;;;;;;4987815;28;20452;-46
2021/11/20 12:39:52;;;;;;;6.97;5.77;;;15.00;54.70;;;;;;4984915;28;20482;-46
2021/11/20 12:42:51;;;;;;;6.57;5.23;;;14.90;54.60;;;;;;5019222;28;20452;-47
2021/11/20 12:45:49;;;;;;;7.63;6.00;;;14.60;55.40;;;;;;5031247;28;20437;-47
2021/11/20 12:48:39;;;;;;;8.00;5.50;;;14.70;55.40;;;;;;5013414;28;20470;-45
2021/11/20 12:51:27;;;;;;;7.63;5.27;;;14.70;55.30;;;;;;5031014;28;20444;-48
2021/11/20 12:53:58;;;;;;;6.10;5.33;;;14.80;54.90;;;;;;5019227;28;20447;-46
2021/11/20 12:56:40;;;;;;;6.77;5.13;;;14.70;54.80;;;;;;5031149;28;20803;-46